createdAt,value
2022-07-27T00:01:06.969Z,101909.50
2022-07-27T00:03:36.860Z,101915.56
2022-07-27T00:06:05.040Z,101902.69
2022-07-27T00:08:33.519Z,101909.13
2022-07-27T00:11:01.685Z,101913.66
2022-07-27T00:13:29.812Z,101911.19
2022-07-27T00:16:00.002Z,101906.53
2022-07-27T00:18:28.841Z,101912.88
2022-07-27T00:20:58.702Z,101901.94
2022-07-27T00:23:26.785Z,101910.25
2022-07-27T00:25:54.770Z,101902.59
2022-07-27T00:28:23.150Z,101909.84
2022-07-27T00:30:51.219Z,101906.53
2022-07-27T00:33:19.278Z,101912.88
2022-07-27T00:35:47.337Z,101908.84
2022-07-27T00:38:17.166Z,101921.78
2022-07-27T00:40:45.312Z,101914.81
2022-07-27T00:43:13.964Z,101910.88
2022-07-27T00:45:42.014Z,101917.47
2022-07-27T00:48:10.018Z,101924.47
2022-07-27T00:50:39.450Z,101917.13
2022-07-27T00:53:08.935Z,101919.72
2022-07-27T00:55:40.394Z,101923.75
2022-07-27T00:58:09.922Z,101931.00
2022-07-27T01:00:39.150Z,101926.44
2022-07-27T01:03:09.468Z,101926.44
2022-07-27T01:05:42.725Z,101927.25
2022-07-27T01:08:14.778Z,101932.50
2022-07-27T01:10:48.069Z,101928.34
2022-07-27T01:13:19.557Z,101927.00
2022-07-27T01:15:50.489Z,101932.53
2022-07-27T01:18:34.201Z,101928.44
2022-07-27T01:21:13.644Z,101929.22
2022-07-27T01:23:48.247Z,101924.75
2022-07-27T01:26:19.643Z,101923.88
2022-07-27T01:28:51.462Z,101923.69
2022-07-27T01:31:20.816Z,101923.69
2022-07-27T01:33:53.219Z,101925.03
2022-07-27T01:36:23.739Z,101932.25
2022-07-27T01:38:56.363Z,101923.78
2022-07-27T01:41:28.054Z,101925.53
2022-07-27T01:43:58.182Z,101929.28
2022-07-27T01:46:27.765Z,101917.88
2022-07-27T01:48:59.123Z,101915.09
2022-07-27T01:51:30.617Z,101912.72
2022-07-27T01:54:02.103Z,101913.13
2022-07-27T01:56:31.423Z,101912.56
2022-07-27T01:59:02.966Z,101901.13
2022-07-27T02:01:34.270Z,101908.63
2022-07-27T02:04:06.184Z,101906.97
2022-07-27T02:06:34.567Z,101903.81
2022-07-27T02:09:04.375Z,101898.78
2022-07-27T02:11:49.772Z,101909.63
2022-07-27T02:14:18.019Z,101899.22
2022-07-27T02:16:49.991Z,101898.59
2022-07-27T02:19:19.226Z,101902.84
2022-07-27T02:21:47.150Z,101897.16
2022-07-27T02:24:16.482Z,101902.00
2022-07-27T02:26:44.587Z,101891.41
2022-07-27T02:29:13.673Z,101892.84
2022-07-27T02:31:41.915Z,101903.06
2022-07-27T02:34:10.508Z,101896.41
2022-07-27T02:36:38.539Z,101898.78
2022-07-27T02:39:06.775Z,101904.53
2022-07-27T02:41:36.141Z,101905.00
2022-07-27T02:44:04.260Z,101909.19
2022-07-27T02:46:32.253Z,101906.25
2022-07-27T02:49:00.557Z,101905.88
2022-07-27T02:51:28.580Z,101912.81
2022-07-27T02:53:56.521Z,101914.84
2022-07-27T02:56:26.606Z,101901.91
2022-07-27T02:58:56.648Z,101911.16
2022-07-27T03:01:24.845Z,101909.25
2022-07-27T03:03:53.066Z,101902.13
2022-07-27T03:06:21.072Z,101900.03
2022-07-27T03:08:49.202Z,101913.25
2022-07-27T03:11:17.156Z,101904.69
2022-07-27T03:13:45.244Z,101911.91
2022-07-27T03:16:15.186Z,101899.47
2022-07-27T03:18:43.474Z,101900.69
2022-07-27T03:21:11.533Z,101903.66
2022-07-27T03:23:40.500Z,101899.84
2022-07-27T03:26:08.707Z,101903.56
2022-07-27T03:28:36.949Z,101903.56
2022-07-27T03:31:05.014Z,101906.97
2022-07-27T03:33:36.256Z,101902.69
2022-07-27T03:36:05.529Z,101905.06
2022-07-27T03:38:33.482Z,101911.63
2022-07-27T03:41:01.483Z,101912.66
2022-07-27T03:43:29.652Z,101909.72
2022-07-27T03:45:57.885Z,101919.50
2022-07-27T03:48:27.260Z,101915.72
2022-07-27T03:50:56.685Z,101904.84
2022-07-27T03:53:24.743Z,101917.13
2022-07-27T03:55:52.966Z,101919.34
2022-07-27T03:58:23.246Z,101917.22
2022-07-27T04:00:51.568Z,101915.53
2022-07-27T04:03:19.809Z,101919.34
2022-07-27T04:05:47.760Z,101922.94
2022-07-27T04:08:21.861Z,101916.41
2022-07-27T04:10:50.438Z,101918.69
2022-07-27T04:13:22.368Z,101911.06
2022-07-27T04:15:52.886Z,101920.66
2022-07-27T04:18:23.154Z,101923.53
2022-07-27T04:20:53.281Z,101926.75
2022-07-27T04:23:25.271Z,101923.31
2022-07-27T04:25:56.449Z,101924.56
2022-07-27T04:28:27.316Z,101926.28
2022-07-27T04:30:58.113Z,101931.03
2022-07-27T04:33:27.239Z,101930.75
2022-07-27T04:35:57.044Z,101927.63
2022-07-27T04:38:28.545Z,101928.47
2022-07-27T04:40:59.577Z,101945.03
2022-07-27T04:43:29.928Z,101941.63
2022-07-27T04:46:00.485Z,101943.41
2022-07-27T04:48:31.858Z,101948.50
2022-07-27T04:51:02.603Z,101957.06
2022-07-27T04:53:36.678Z,101947.88
2022-07-27T04:56:26.629Z,101956.06
2022-07-27T04:58:58.035Z,101951.38
2022-07-27T05:01:33.160Z,101956.97
2022-07-27T05:04:05.678Z,101956.59
2022-07-27T05:06:34.314Z,101959.72
2022-07-27T05:09:04.277Z,101948.16
2022-07-27T05:11:34.508Z,101957.97
2022-07-27T05:14:03.934Z,101959.84
2022-07-27T05:16:31.982Z,101960.97
2022-07-27T05:19:00.287Z,101962.00
2022-07-27T05:21:29.342Z,101967.09
2022-07-27T05:23:57.201Z,101969.63
2022-07-27T05:26:26.807Z,101976.84
2022-07-27T05:28:54.802Z,101971.47
2022-07-27T05:31:22.864Z,101983.50
2022-07-27T05:33:58.107Z,101978.75
2022-07-27T05:36:26.688Z,101978.41
2022-07-27T05:38:56.503Z,101984.91
2022-07-27T05:41:28.969Z,101980.28
2022-07-27T05:43:59.878Z,101976.06
2022-07-27T05:46:38.450Z,101987.69
2022-07-27T05:49:09.020Z,101987.44
2022-07-27T05:51:38.898Z,101995.53
2022-07-27T05:54:09.894Z,101986.16
2022-07-27T05:56:39.906Z,101993.50
2022-07-27T05:59:09.474Z,101989.63
2022-07-27T06:01:40.886Z,101995.84
2022-07-27T06:04:10.638Z,101990.06
2022-07-27T06:07:01.307Z,101998.63
2022-07-27T06:09:29.593Z,102002.78
2022-07-27T06:12:10.519Z,101995.22
2022-07-27T06:14:38.854Z,101991.75
2022-07-27T06:17:07.740Z,101988.75
2022-07-27T06:19:39.623Z,101997.50
2022-07-27T06:22:08.386Z,101995.22
2022-07-27T06:24:36.713Z,101993.09
2022-07-27T06:27:08.497Z,101998.69
2022-07-27T06:29:40.136Z,101998.91
2022-07-27T06:32:11.550Z,102004.69
2022-07-27T06:34:44.590Z,101995.13
2022-07-27T06:37:19.592Z,102001.34
2022-07-27T06:39:51.013Z,102000.34
2022-07-27T06:42:25.040Z,102003.72
2022-07-27T06:44:55.472Z,102002.47
2022-07-27T06:47:28.839Z,102008.03
2022-07-27T06:50:00.162Z,102007.81
2022-07-27T06:52:31.982Z,102010.69
2022-07-27T06:55:04.147Z,102007.44
2022-07-27T06:57:35.624Z,102010.81
2022-07-27T07:00:07.450Z,102006.88
2022-07-27T07:02:38.623Z,102004.22
2022-07-27T07:05:10.663Z,102012.75
2022-07-27T07:07:39.625Z,102014.09
2022-07-27T07:10:09.138Z,102015.34
2022-07-27T07:12:40.887Z,102024.97
2022-07-27T07:15:11.161Z,102015.81
2022-07-27T07:17:42.394Z,102014.38
2022-07-27T07:20:13.673Z,102020.84
2022-07-27T07:22:42.822Z,102024.75
2022-07-27T07:25:13.479Z,102031.69
2022-07-27T07:27:47.180Z,102042.25
2022-07-27T07:30:19.722Z,102043.47
2022-07-27T07:32:51.470Z,102048.63
2022-07-27T07:35:22.048Z,102043.41
2022-07-27T07:37:53.623Z,102044.94
2022-07-27T07:43:17.145Z,102040.44
2022-07-27T07:45:51.581Z,102050.72
2022-07-27T07:48:23.228Z,102053.59
2022-07-27T07:50:54.535Z,102054.25
2022-07-27T07:53:26.694Z,102068.25
2022-07-27T07:55:57.949Z,102065.25
2022-07-27T07:58:30.286Z,102056.16
2022-07-27T08:00:59.768Z,102064.53
2022-07-27T08:03:29.994Z,102076.63
2022-07-27T08:05:58.675Z,102068.03
2022-07-27T08:08:27.849Z,102080.31
2022-07-27T08:10:56.202Z,102077.59
2022-07-27T08:13:24.458Z,102076.56
2022-07-27T08:15:54.701Z,102077.97
2022-07-27T08:18:22.846Z,102075.44
2022-07-27T08:20:52.537Z,102074.78
2022-07-27T08:23:20.996Z,102079.16
2022-07-27T08:25:49.433Z,102065.81
2022-07-27T08:28:17.605Z,102071.59
2022-07-27T08:30:46.550Z,102071.72
2022-07-27T08:33:18.012Z,102077.78
2022-07-27T08:35:50.171Z,102075.31
2022-07-27T08:38:21.468Z,102079.84
2022-07-27T08:40:51.936Z,102081.63
2022-07-27T08:43:25.199Z,102073.06
2022-07-27T08:45:57.045Z,102084.13
2022-07-27T08:48:30.847Z,102075.19
2022-07-27T08:51:00.185Z,102072.44
2022-07-27T08:53:52.212Z,102076.25
2022-07-27T08:56:22.695Z,102076.59
2022-07-27T08:58:52.720Z,102069.91
2022-07-27T09:01:24.016Z,102074.34
2022-07-27T09:03:56.436Z,102069.13
2022-07-27T09:06:46.060Z,102077.19
2022-07-27T09:09:23.039Z,102075.28
2022-07-27T09:12:06.572Z,102069.28
2022-07-27T09:14:37.203Z,102074.81
2022-07-27T09:20:18.613Z,102068.41
2022-07-27T09:22:52.722Z,102064.31
2022-07-27T09:25:38.689Z,102063.69
2022-07-27T09:28:12.503Z,102069.66
2022-07-27T09:30:43.711Z,102075.22
2022-07-27T09:33:12.154Z,102071.28
2022-07-27T09:35:41.652Z,102073.00
2022-07-27T09:38:20.453Z,102079.56
2022-07-27T09:40:51.036Z,102078.34
2022-07-27T09:44:12.283Z,102073.31
2022-07-27T09:46:08.313Z,102070.53
2022-07-27T09:48:37.239Z,102078.91
2022-07-27T09:51:55.963Z,102077.69
2022-07-27T09:54:00.017Z,102084.13
2022-07-27T09:56:30.474Z,102076.97
2022-07-27T09:59:00.128Z,102072.19
2022-07-27T10:01:31.144Z,102071.81
2022-07-27T10:04:03.521Z,102074.88
2022-07-27T10:06:53.487Z,102080.66
2022-07-27T10:09:22.176Z,102079.13
2022-07-27T10:11:50.665Z,102081.34
2022-07-27T10:14:20.886Z,102083.81
2022-07-27T10:16:53.196Z,102092.03
2022-07-27T10:19:29.052Z,102079.47
2022-07-27T10:21:58.449Z,102074.03
2022-07-27T10:24:29.511Z,102078.97
2022-07-27T10:27:20.195Z,102090.03
2022-07-27T10:29:52.432Z,102080.03
2022-07-27T10:32:28.286Z,102081.75
2022-07-27T10:34:59.334Z,102078.97
2022-07-27T10:37:32.782Z,102060.25
2022-07-27T10:40:20.764Z,102077.44
2022-07-27T10:42:54.471Z,102085.91
2022-07-27T10:45:27.820Z,102082.91
2022-07-27T10:48:47.517Z,102081.59
2022-07-27T10:51:36.851Z,102083.28
2022-07-27T10:54:22.982Z,102078.03
2022-07-27T10:56:55.668Z,102071.56
2022-07-27T11:00:08.551Z,102069.69
2022-07-27T11:02:41.859Z,102073.75
2022-07-27T11:05:53.918Z,102085.44
2022-07-27T11:08:47.474Z,102085.75
2022-07-27T11:10:49.872Z,102083.66
2022-07-27T11:13:19.880Z,102073.06
2022-07-27T11:15:56.028Z,102086.09
2022-07-27T11:21:16.296Z,102091.00
2022-07-27T11:23:51.409Z,102085.13
2022-07-27T11:26:22.115Z,102085.19
2022-07-27T11:28:51.110Z,102090.66
2022-07-27T11:31:38.672Z,102090.59
2022-07-27T11:34:09.937Z,102080.53
2022-07-27T11:36:41.204Z,102083.22
2022-07-27T11:39:14.977Z,102090.34
2022-07-27T11:42:08.846Z,102086.91
2022-07-27T11:44:33.808Z,102087.88
2022-07-27T11:47:02.884Z,102086.59
2022-07-27T11:49:32.662Z,102073.59
2022-07-27T11:52:02.739Z,102073.56
2022-07-27T11:54:32.635Z,102077.19
2022-07-27T11:57:03.513Z,102073.31
2022-07-27T11:59:32.635Z,102083.50
2022-07-27T12:02:02.938Z,102080.81
2022-07-27T12:04:33.007Z,102085.97
2022-07-27T12:07:08.177Z,102081.94
2022-07-27T12:09:39.297Z,102084.72
2022-07-27T12:12:17.242Z,102077.84
2022-07-27T12:14:51.903Z,102076.00
2022-07-27T12:17:32.357Z,102074.38
2022-07-27T12:20:07.106Z,102082.69
2022-07-27T12:22:39.982Z,102075.59
2022-07-27T12:25:16.091Z,102080.28
2022-07-27T12:27:59.953Z,102084.59
2022-07-27T12:30:33.605Z,102087.06
2022-07-27T12:33:05.253Z,102083.06
2022-07-27T12:35:45.899Z,102066.91
2022-07-27T12:38:16.382Z,102076.47
2022-07-27T12:40:47.238Z,102074.38
2022-07-27T12:43:21.757Z,102082.28
2022-07-27T12:45:51.988Z,102081.69
2022-07-27T12:48:22.755Z,102077.47
2022-07-27T12:50:59.935Z,102079.94
2022-07-27T12:53:28.198Z,102082.66
2022-07-27T12:55:59.464Z,102085.47
2022-07-27T12:58:30.702Z,102080.56
2022-07-27T13:01:00.849Z,102086.84
2022-07-27T13:03:29.952Z,102086.56
2022-07-27T13:05:58.151Z,102079.69
2022-07-27T13:08:26.376Z,102081.84
2022-07-27T13:10:54.473Z,102082.28
2022-07-27T13:13:24.662Z,102086.50
2022-07-27T13:15:54.370Z,102084.34
2022-07-27T13:18:23.997Z,102082.44
2022-07-27T13:20:52.898Z,102085.84
2022-07-27T13:23:21.607Z,102082.03
2022-07-27T13:25:49.923Z,102085.50
2022-07-27T13:28:18.048Z,102091.88
2022-07-27T13:30:46.280Z,102093.50
2022-07-27T13:33:15.811Z,102086.72
2022-07-27T13:35:43.890Z,102093.38
2022-07-27T13:38:16.604Z,102095.09
2022-07-27T13:40:45.130Z,102100.69
2022-07-27T13:43:13.289Z,102099.47
2022-07-27T13:45:43.265Z,102091.84
2022-07-27T13:48:13.188Z,102088.22
2022-07-27T13:50:43.046Z,102083.88
2022-07-27T13:53:15.132Z,102089.13
2022-07-27T13:55:44.387Z,102091.28
2022-07-27T13:58:12.996Z,102092.84
2022-07-27T14:00:41.974Z,102089.84
2022-07-27T14:03:11.454Z,102093.75
2022-07-27T14:05:49.252Z,102089.56
2022-07-27T14:08:19.207Z,102090.16
2022-07-27T14:10:47.308Z,102093.19
2022-07-27T14:13:17.619Z,102083.69
2022-07-27T14:15:54.137Z,102082.03
2022-07-27T14:18:25.621Z,102083.75
2022-07-27T14:20:55.716Z,102085.09
2022-07-27T14:23:26.098Z,102079.00
2022-07-27T14:25:55.529Z,102083.50
2022-07-27T14:28:24.439Z,102082.63
2022-07-27T14:30:53.524Z,102081.16
2022-07-27T14:33:21.621Z,102084.34
2022-07-27T14:35:49.942Z,102082.63
2022-07-27T14:38:26.986Z,102082.63
2022-07-27T14:40:59.285Z,102084.34
2022-07-27T14:43:27.976Z,102085.88
2022-07-27T14:45:55.899Z,102083.53
2022-07-27T14:48:42.214Z,102087.19
2022-07-27T14:51:12.681Z,102090.81
2022-07-27T14:53:42.414Z,102093.84
2022-07-27T14:56:10.467Z,102087.03
2022-07-27T14:58:38.565Z,102091.94
2022-07-27T15:01:06.926Z,102093.00
2022-07-27T15:03:35.175Z,102103.47
2022-07-27T15:06:03.439Z,102105.13
2022-07-27T15:08:31.786Z,102100.84
2022-07-27T15:11:01.064Z,102093.84
2022-07-27T15:13:29.007Z,102091.94
2022-07-27T15:15:58.280Z,102104.34
2022-07-27T15:18:26.489Z,102096.84
2022-07-27T15:20:54.440Z,102093.00
2022-07-27T15:23:23.339Z,102093.63
2022-07-27T15:25:52.024Z,102083.59
2022-07-27T15:28:21.465Z,102087.44
2022-07-27T15:30:49.864Z,102082.94
2022-07-27T15:33:18.175Z,102084.47
2022-07-27T15:35:46.181Z,102097.94
2022-07-27T15:38:16.236Z,102092.16
2022-07-27T15:40:44.269Z,102090.03
2022-07-27T15:43:15.460Z,102084.69
2022-07-27T15:45:47.709Z,102090.44
2022-07-27T15:48:17.642Z,102075.06
2022-07-27T15:50:48.513Z,102085.75
2022-07-27T15:53:27.454Z,102077.84
2022-07-27T15:55:56.815Z,102079.53
2022-07-27T15:58:25.459Z,102079.72
2022-07-27T16:00:57.702Z,102070.53
2022-07-27T16:03:27.292Z,102077.78
2022-07-27T16:05:56.696Z,102073.94
2022-07-27T16:08:27.239Z,102064.97
2022-07-27T16:10:55.604Z,102069.28
2022-07-27T16:13:23.676Z,102063.94
2022-07-27T16:16:09.646Z,102057.53
2022-07-27T16:18:40.247Z,102069.91
2022-07-27T16:21:10.194Z,102059.88
2022-07-27T16:23:41.201Z,102054.97
2022-07-27T16:26:14.263Z,102050.94
2022-07-27T16:28:48.155Z,102057.13
2022-07-27T16:31:20.555Z,102052.41
2022-07-27T16:33:55.168Z,102055.44
2022-07-27T16:36:24.239Z,102049.19
2022-07-27T16:38:53.740Z,102056.91
2022-07-27T16:41:23.625Z,102055.41
2022-07-27T16:43:53.114Z,102055.81
2022-07-27T16:46:23.167Z,102048.97
2022-07-27T16:48:54.731Z,102051.56
2022-07-27T16:51:25.000Z,102054.09
2022-07-27T16:53:55.145Z,102046.41
2022-07-27T16:56:26.194Z,102053.22
2022-07-27T16:58:57.700Z,102043.38
2022-07-27T17:01:27.345Z,102036.13
2022-07-27T17:04:02.278Z,102045.16
2022-07-27T17:06:32.455Z,102051.34
2022-07-27T17:09:01.194Z,102045.13
2022-07-27T17:11:29.584Z,102047.28
2022-07-27T17:13:59.349Z,102051.16
2022-07-27T17:16:29.229Z,102057.34
2022-07-27T17:18:58.693Z,102056.47
2022-07-27T17:21:26.885Z,102059.47
2022-07-27T17:23:56.113Z,102058.19
2022-07-27T17:26:24.875Z,102053.69
2022-07-27T17:28:53.871Z,102057.31
2022-07-27T17:31:22.754Z,102054.97
2022-07-27T17:33:52.062Z,102066.69
2022-07-27T17:36:22.256Z,102057.50
2022-07-27T17:38:53.859Z,102063.66
2022-07-27T17:41:24.836Z,102062.34
2022-07-27T17:43:54.034Z,102064.06
2022-07-27T17:46:24.753Z,102059.81
2022-07-27T17:48:53.341Z,102063.84
2022-07-27T17:51:25.440Z,102064.91
2022-07-27T17:53:55.642Z,102064.94
2022-07-27T17:56:23.740Z,102063.44
2022-07-27T17:58:52.186Z,102062.75
2022-07-27T18:01:46.407Z,102056.53
2022-07-27T18:04:08.767Z,102053.63
2022-07-27T18:06:38.712Z,102051.84
2022-07-27T18:09:08.784Z,102052.25
2022-07-27T18:11:38.787Z,102050.97
2022-07-27T18:14:09.818Z,102050.34
2022-07-27T18:16:41.488Z,102051.19
2022-07-27T18:19:13.618Z,102053.38
2022-07-27T18:21:44.098Z,102053.53
2022-07-27T18:24:12.725Z,102058.66
2022-07-27T18:26:42.633Z,102061.63
2022-07-27T18:29:14.231Z,102061.19
2022-07-27T18:31:44.041Z,102058.59
2022-07-27T18:34:17.512Z,102059.91
2022-07-27T18:36:47.923Z,102060.75
2022-07-27T18:39:18.379Z,102070.56
2022-07-27T18:41:47.753Z,102069.69
2022-07-27T18:44:16.035Z,102076.50
2022-07-27T18:46:44.333Z,102078.03
2022-07-27T18:49:18.315Z,102083.81
2022-07-27T18:51:48.841Z,102073.16
2022-07-27T18:54:18.610Z,102078.75
2022-07-27T18:56:48.377Z,102078.13
2022-07-27T18:59:19.626Z,102071.88
2022-07-27T19:01:49.419Z,102078.66
2022-07-27T19:04:18.147Z,102090.19
2022-07-27T19:06:50.828Z,102091.22
2022-07-27T19:09:20.303Z,102090.16
2022-07-27T19:11:48.655Z,102092.25
2022-07-27T19:14:18.475Z,102089.72
2022-07-27T19:16:47.164Z,102092.03
2022-07-27T19:19:20.670Z,102093.28
2022-07-27T19:21:52.280Z,102096.22
2022-07-27T19:24:20.843Z,102104.94
2022-07-27T19:26:49.001Z,102103.81
2022-07-27T19:29:19.973Z,102107.81
2022-07-27T19:31:48.786Z,102109.09
2022-07-27T19:34:17.156Z,102103.72
2022-07-27T19:36:45.743Z,102109.47
2022-07-27T19:39:16.054Z,102109.38
2022-07-27T19:41:53.246Z,102110.88
2022-07-27T19:44:22.544Z,102111.75
2022-07-27T19:46:50.913Z,102116.44
2022-07-27T19:49:19.272Z,102118.63
2022-07-27T19:51:47.703Z,102120.72
2022-07-27T19:54:17.430Z,102115.56
2022-07-27T19:56:52.380Z,102120.06
2022-07-27T19:59:20.826Z,102125.53
2022-07-27T20:01:49.185Z,102126.59
2022-07-27T20:04:17.413Z,102127.19
2022-07-27T20:06:45.944Z,102124.00
2022-07-27T20:09:14.527Z,102125.09
2022-07-27T20:11:44.803Z,102128.03
2022-07-27T20:14:12.944Z,102130.41
2022-07-27T20:16:41.956Z,102127.06
2022-07-27T20:19:10.231Z,102130.88
2022-07-27T20:21:40.311Z,102133.22
2022-07-27T20:24:09.426Z,102135.13
2022-07-27T20:26:37.411Z,102136.81
2022-07-27T20:29:07.704Z,102132.34
2022-07-27T20:31:35.697Z,102131.09
2022-07-27T20:34:04.154Z,102124.69
2022-07-27T20:36:32.689Z,102126.84
2022-07-27T20:39:04.901Z,102126.50
2022-07-27T20:41:35.536Z,102121.22
2022-07-27T20:44:03.506Z,102122.91
2022-07-27T20:46:32.920Z,102122.88
2022-07-27T20:49:01.305Z,102125.84
2022-07-27T20:51:29.306Z,102124.25
2022-07-27T20:53:58.418Z,102125.66
2022-07-27T20:56:26.995Z,102115.09
2022-07-27T20:58:54.926Z,102121.03
2022-07-27T21:01:22.958Z,102121.44
2022-07-27T21:03:56.363Z,102115.25
2022-07-27T21:06:24.445Z,102111.16
2022-07-27T21:08:52.499Z,102114.97
2022-07-27T21:11:21.347Z,102108.69
2022-07-27T21:13:49.407Z,102104.19
2022-07-27T21:16:17.470Z,102107.94
2022-07-27T21:18:45.594Z,102106.44
2022-07-27T21:21:15.146Z,102121.25
2022-07-27T21:24:00.523Z,102114.28
2022-07-27T21:26:31.949Z,102121.53
2022-07-27T21:29:00.095Z,102124.31
2022-07-27T21:31:30.156Z,102128.91
2022-07-27T21:33:58.347Z,102118.31
2022-07-27T21:36:29.288Z,102131.94
2022-07-27T21:38:57.629Z,102127.13
2022-07-27T21:41:25.891Z,102123.25
2022-07-27T21:43:54.038Z,102130.34
2022-07-27T21:46:22.277Z,102120.78
2022-07-27T21:48:51.027Z,102129.09
2022-07-27T21:51:19.619Z,102121.88
2022-07-27T21:53:49.913Z,102116.72
2022-07-27T21:56:18.529Z,102121.34
2022-07-27T21:58:48.000Z,102123.25
2022-07-27T22:01:17.476Z,102120.28
2022-07-27T22:03:45.915Z,102122.00
2022-07-27T22:06:13.967Z,102122.84
2022-07-27T22:08:42.061Z,102121.72
2022-07-27T22:11:11.510Z,102125.34
2022-07-27T22:13:39.401Z,102122.97
2022-07-27T22:16:08.978Z,102120.03
2022-07-27T22:18:37.269Z,102126.69
2022-07-27T22:21:05.598Z,102124.31
2022-07-27T22:23:33.706Z,102134.06
2022-07-27T22:26:01.796Z,102128.91
2022-07-27T22:28:31.259Z,102127.84
2022-07-27T22:31:21.393Z,102125.09
2022-07-27T22:33:47.885Z,102127.22
2022-07-27T22:36:17.502Z,102127.47
2022-07-27T22:38:45.647Z,102126.81
2022-07-27T22:41:13.917Z,102134.66
2022-07-27T22:43:43.257Z,102125.03
2022-07-27T22:46:11.368Z,102131.41
2022-07-27T22:48:39.574Z,102120.28
2022-07-27T22:51:08.342Z,102126.47
2022-07-27T22:53:38.487Z,102125.03
2022-07-27T22:56:06.751Z,102120.34
2022-07-27T22:58:34.865Z,102119.09
2022-07-27T23:01:04.456Z,102126.75
2022-07-27T23:03:32.914Z,102125.56
2022-07-27T23:06:01.051Z,102128.78
2022-07-27T23:08:29.173Z,102126.44
2022-07-27T23:10:57.239Z,102125.88
2022-07-27T23:13:25.290Z,102127.88
2022-07-27T23:16:01.627Z,102136.78
2022-07-27T23:18:31.055Z,102133.38
2022-07-27T23:20:59.476Z,102133.78
2022-07-27T23:23:27.822Z,102138.53
2022-07-27T23:25:55.783Z,102147.78
2022-07-27T23:28:27.752Z,102134.72
2022-07-27T23:30:55.778Z,102139.22
2022-07-27T23:33:23.827Z,102138.56
2022-07-27T23:35:53.399Z,102134.72
2022-07-27T23:38:21.446Z,102134.56
2022-07-27T23:40:50.641Z,102125.78
2022-07-27T23:43:18.605Z,102124.06
2022-07-27T23:45:47.918Z,102124.53
2022-07-27T23:48:16.869Z,102135.31
2022-07-27T23:50:44.967Z,102128.94
2022-07-27T23:53:18.093Z,102126.44
2022-07-27T23:55:46.285Z,102130.81
2022-07-27T23:58:14.269Z,102118.63
